sensor_id;sensor_type;location;lat;lon;timestamp;pressure;altitude;pressure_sealevel;temperature;humidity
56074;BME280;41950;55.840;37.442;2023-04-07T00:01:44;100556.16;;;4.19;49.27
56074;BME280;41950;55.840;37.442;2023-04-07T00:04:10;100557.06;;;4.21;49.11
56074;BME280;41950;55.840;37.442;2023-04-07T00:06:36;100540.50;;;4.10;49.14
56074;BME280;41950;55.840;37.442;2023-04-07T00:09:01;100551.03;;;4.19;49.27
56074;BME280;41950;55.840;37.442;2023-04-07T00:11:27;100555.31;;;4.20;49.30
56074;BME280;41950;55.840;37.442;2023-04-07T00:13:53;100522.28;;;3.97;49.45
56074;BME280;41950;55.840;37.442;2023-04-07T00:16:18;100555.19;;;4.14;49.83
56074;BME280;41950;55.840;37.442;2023-04-07T00:18:44;100556.06;;;4.14;49.67
56074;BME280;41950;55.840;37.442;2023-04-07T00:21:10;100558.56;;;4.11;49.79
56074;BME280;41950;55.840;37.442;2023-04-07T00:23:36;100518.66;;;3.89;49.79
56074;BME280;41950;55.840;37.442;2023-04-07T00:26:02;100554.13;;;4.06;49.85
56074;BME280;41950;55.840;37.442;2023-04-07T00:28:28;100551.50;;;4.02;49.90
56074;BME280;41950;55.840;37.442;2023-04-07T00:30:53;100532.28;;;3.85;50.09
56074;BME280;41950;55.840;37.442;2023-04-07T00:33:19;100546.22;;;3.96;50.22
56074;BME280;41950;55.840;37.442;2023-04-07T00:35:44;100540.16;;;3.93;50.24
56074;BME280;41950;55.840;37.442;2023-04-07T00:38:10;100547.03;;;3.94;50.44
56074;BME280;41950;55.840;37.442;2023-04-07T00:40:36;100546.16;;;3.93;50.09
56074;BME280;41950;55.840;37.442;2023-04-07T00:43:01;100538.31;;;3.87;50.03
56074;BME280;41950;55.840;37.442;2023-04-07T00:45:27;100532.25;;;3.84;50.45
56074;BME280;41950;55.840;37.442;2023-04-07T00:47:53;100545.19;;;3.88;50.55
56074;BME280;41950;55.840;37.442;2023-04-07T00:50:19;100548.53;;;3.84;50.64
56074;BME280;41950;55.840;37.442;2023-04-07T00:52:45;100548.53;;;3.84;50.61
56074;BME280;41950;55.840;37.442;2023-04-07T00:55:10;100534.59;;;3.76;50.68
56074;BME280;41950;55.840;37.442;2023-04-07T00:57:36;100505.84;;;3.55;50.56
56074;BME280;41950;55.840;37.442;2023-04-07T01:00:02;100535.34;;;3.70;50.40
56074;BME280;41950;55.840;37.442;2023-04-07T01:02:56;100527.47;;;3.63;50.68
56074;BME280;41950;55.840;37.442;2023-04-07T01:05:32;100549.88;;;3.70;50.57
56074;BME280;41950;55.840;37.442;2023-04-07T01:08:13;100542.94;;;3.66;50.78
56074;BME280;41950;55.840;37.442;2023-04-07T01:10:45;100556.53;;;3.62;51.17
56074;BME280;41950;55.840;37.442;2023-04-07T01:13:28;100548.81;;;3.62;50.76
56074;BME280;41950;55.840;37.442;2023-04-07T01:15:57;100527.97;;;3.50;50.89
56074;BME280;41950;55.840;37.442;2023-04-07T01:18:31;100552.13;;;3.56;50.93
56074;BME280;41950;55.840;37.442;2023-04-07T01:21:06;100559.75;;;3.55;50.95
56074;BME280;41950;55.840;37.442;2023-04-07T01:26:29;100558.88;;;3.54;50.83
56074;BME280;41950;55.840;37.442;2023-04-07T01:31:43;100533.50;;;3.30;51.28
56074;BME280;41950;55.840;37.442;2023-04-07T01:34:11;100556.81;;;3.39;51.19
56074;BME280;41950;55.840;37.442;2023-04-07T01:36:37;100561.94;;;3.39;51.30
56074;BME280;41950;55.840;37.442;2023-04-07T01:39:04;100569.53;;;3.35;51.72
56074;BME280;41950;55.840;37.442;2023-04-07T01:41:31;100560.78;;;3.28;51.70
56074;BME280;41950;55.840;37.442;2023-04-07T01:43:58;100556.44;;;3.26;51.90
56074;BME280;41950;55.840;37.442;2023-04-07T01:46:25;100557.22;;;3.23;52.06
56074;BME280;41950;55.840;37.442;2023-04-07T01:48:51;100563.13;;;3.19;52.11
56074;BME280;41950;55.840;37.442;2023-04-07T01:51:19;100558.78;;;3.17;52.17
56074;BME280;41950;55.840;37.442;2023-04-07T01:53:46;100562.13;;;3.14;52.13
56074;BME280;41950;55.840;37.442;2023-04-07T01:56:12;100562.88;;;3.10;52.26
56074;BME280;41950;55.840;37.442;2023-04-07T01:58:38;100559.25;;;3.02;52.36
56074;BME280;41950;55.840;37.442;2023-04-07T02:01:05;100546.19;;;2.94;52.57
56074;BME280;41950;55.840;37.442;2023-04-07T02:03:39;100572.88;;;3.01;52.74
56074;BME280;41950;55.840;37.442;2023-04-07T02:06:11;100547.66;;;2.85;52.72
56074;BME280;41950;55.840;37.442;2023-04-07T02:08:41;100567.69;;;2.99;52.97
56074;BME280;41950;55.840;37.442;2023-04-07T02:11:10;100568.47;;;2.97;52.93
56074;BME280;41950;55.840;37.442;2023-04-07T02:13:38;100573.81;;;3.03;53.25
56074;BME280;41950;55.840;37.442;2023-04-07T02:16:26;100552.97;;;2.92;52.99
56074;BME280;41950;55.840;37.442;2023-04-07T02:18:53;100554.50;;;2.86;52.84
56074;BME280;41950;55.840;37.442;2023-04-07T02:21:19;100552.69;;;2.82;53.15
56074;BME280;41950;55.840;37.442;2023-04-07T02:23:45;100565.59;;;2.85;53.04
56074;BME280;41950;55.840;37.442;2023-04-07T02:26:11;100575.09;;;2.89;53.39
56074;BME280;41950;55.840;37.442;2023-04-07T02:28:44;100549.09;;;2.75;53.33
56074;BME280;41950;55.840;37.442;2023-04-07T02:31:10;100538.97;;;2.79;53.33
56074;BME280;41950;55.840;37.442;2023-04-07T02:33:38;100572.63;;;2.92;53.46
56074;BME280;41950;55.840;37.442;2023-04-07T02:36:04;100573.38;;;2.88;53.68
56074;BME280;41950;55.840;37.442;2023-04-07T02:38:30;100573.44;;;2.91;53.12
56074;BME280;41950;55.840;37.442;2023-04-07T02:40:56;100553.25;;;2.71;53.28
56074;BME280;41950;55.840;37.442;2023-04-07T02:43:23;100551.50;;;2.70;53.75
56074;BME280;41950;55.840;37.442;2023-04-07T02:45:49;100561.97;;;2.76;53.74
56074;BME280;41950;55.840;37.442;2023-04-07T02:48:15;100575.69;;;2.78;53.61
56074;BME280;41950;55.840;37.442;2023-04-07T02:50:41;100571.31;;;2.74;53.70
56074;BME280;41950;55.840;37.442;2023-04-07T02:53:06;100565.97;;;2.68;54.07
56074;BME280;41950;55.840;37.442;2023-04-07T02:55:32;100578.91;;;2.73;53.98
56074;BME280;41950;55.840;37.442;2023-04-07T02:57:58;100556.59;;;2.69;53.73
56074;BME280;41950;55.840;37.442;2023-04-07T03:00:24;100523.59;;;2.50;53.59
56074;BME280;41950;55.840;37.442;2023-04-07T03:02:51;100583.63;;;2.88;53.73
56074;BME280;41950;55.840;37.442;2023-04-07T03:05:17;100567.16;;;2.79;53.48
56074;BME280;41950;55.840;37.442;2023-04-07T03:07:42;100578.41;;;2.85;53.58
56074;BME280;41950;55.840;37.442;2023-04-07T03:10:08;100592.06;;;2.84;53.58
56074;BME280;41950;55.840;37.442;2023-04-07T03:12:34;100568.59;;;2.70;53.64
56074;BME280;41950;55.840;37.442;2023-04-07T03:15:00;100589.28;;;2.76;53.68
56074;BME280;41950;55.840;37.442;2023-04-07T03:17:25;100587.47;;;2.73;53.46
56074;BME280;41950;55.840;37.442;2023-04-07T03:19:51;100580.63;;;2.72;53.58
56074;BME280;41950;55.840;37.442;2023-04-07T03:22:16;100592.75;;;2.78;53.58
56074;BME280;41950;55.840;37.442;2023-04-07T03:24:42;100588.50;;;2.78;53.45
56074;BME280;41950;55.840;37.442;2023-04-07T03:27:08;100577.97;;;2.69;53.46
56074;BME280;41950;55.840;37.442;2023-04-07T03:29:33;100579.00;;;2.74;53.42
56074;BME280;41950;55.840;37.442;2023-04-07T03:31:59;100596.19;;;2.78;53.62
56074;BME280;41950;55.840;37.442;2023-04-07T03:34:25;100593.63;;;2.78;53.42
56074;BME280;41950;55.840;37.442;2023-04-07T03:36:50;100594.47;;;2.77;53.50
56074;BME280;41950;55.840;37.442;2023-04-07T03:39:16;100577.97;;;2.69;53.61
56074;BME280;41950;55.840;37.442;2023-04-07T03:41:42;100601.53;;;2.86;53.65
56074;BME280;41950;55.840;37.442;2023-04-07T03:44:07;100603.31;;;2.89;53.55
56074;BME280;41950;55.840;37.442;2023-04-07T03:46:33;100611.09;;;2.92;53.95
56074;BME280;41950;55.840;37.442;2023-04-07T03:48:58;100611.09;;;2.92;53.60
56074;BME280;41950;55.840;37.442;2023-04-07T03:51:24;100586.56;;;2.71;53.54
56074;BME280;41950;55.840;37.442;2023-04-07T03:53:52;100611.91;;;2.91;53.41
56074;BME280;41950;55.840;37.442;2023-04-07T03:56:18;100558.94;;;2.61;53.37
56074;BME280;41950;55.840;37.442;2023-04-07T03:58:44;100616.25;;;2.93;53.31
56074;BME280;41950;55.840;37.442;2023-04-07T04:01:10;100605.97;;;2.92;53.47
56074;BME280;41950;55.840;37.442;2023-04-07T04:03:36;100603.50;;;2.96;53.28
56074;BME280;41950;55.840;37.442;2023-04-07T04:06:02;100608.97;;;3.07;52.96
56074;BME280;41950;55.840;37.442;2023-04-07T04:08:28;100609.09;;;3.12;52.88
56074;BME280;41950;55.840;37.442;2023-04-07T04:10:54;100612.44;;;3.09;52.63
56074;BME280;41950;55.840;37.442;2023-04-07T04:13:20;100617.88;;;3.21;52.79
56074;BME280;41950;55.840;37.442;2023-04-07T04:15:45;100618.03;;;3.57;52.17
56074;BME280;41950;55.840;37.442;2023-04-07T04:18:11;100577.66;;;3.86;50.43
56074;BME280;41950;55.840;37.442;2023-04-07T04:20:37;100594.59;;;4.14;49.80
56074;BME280;41950;55.840;37.442;2023-04-07T04:23:02;100623.91;;;4.22;49.33
56074;BME280;41950;55.840;37.442;2023-04-07T04:25:28;100602.75;;;3.98;50.18
56074;BME280;41950;55.840;37.442;2023-04-07T04:27:54;100610.22;;;3.87;50.53
56074;BME280;41950;55.840;37.442;2023-04-07T04:30:20;100612.56;;;3.80;50.78
56074;BME280;41950;55.840;37.442;2023-04-07T04:32:46;100635.00;;;3.85;50.93
56074;BME280;41950;55.840;37.442;2023-04-07T04:35:12;100626.34;;;3.83;50.74
56074;BME280;41950;55.840;37.442;2023-04-07T04:37:37;100619.47;;;3.82;50.69
56074;BME280;41950;55.840;37.442;2023-04-07T04:40:03;100616.00;;;3.80;50.77
56074;BME280;41950;55.840;37.442;2023-04-07T04:42:33;100627.25;;;3.84;50.45
56074;BME280;41950;55.840;37.442;2023-04-07T04:44:59;100594.16;;;3.61;50.20
56074;BME280;41950;55.840;37.442;2023-04-07T04:47:24;100627.88;;;3.75;50.33
56074;BME280;41950;55.840;37.442;2023-04-07T04:49:50;100621.81;;;3.73;50.45
56074;BME280;41950;55.840;37.442;2023-04-07T04:52:16;100621.88;;;3.75;50.74
56074;BME280;41950;55.840;37.442;2023-04-07T04:54:41;100632.47;;;3.87;50.07
56074;BME280;41950;55.840;37.442;2023-04-07T04:57:07;100634.28;;;3.91;50.14
56074;BME280;41950;55.840;37.442;2023-04-07T04:59:33;100638.66;;;3.95;50.23
56074;BME280;41950;55.840;37.442;2023-04-07T05:01:59;100631.03;;;3.99;50.17
56074;BME280;41950;55.840;37.442;2023-04-07T05:04:24;100639.72;;;4.04;49.83
56074;BME280;41950;55.840;37.442;2023-04-07T05:06:50;100639.06;;;4.12;49.73
56074;BME280;41950;55.840;37.442;2023-04-07T05:09:16;100628.78;;;4.12;49.41
56074;BME280;41950;55.840;37.442;2023-04-07T05:11:42;100638.31;;;4.16;49.38
56074;BME280;41950;55.840;37.442;2023-04-07T05:14:08;100626.25;;;4.13;49.53
56074;BME280;41950;55.840;37.442;2023-04-07T05:16:34;100637.78;;;4.30;49.55
56074;BME280;41950;55.840;37.442;2023-04-07T05:19:00;100627.59;;;4.35;49.28
56074;BME280;41950;55.840;37.442;2023-04-07T05:21:26;100645.06;;;4.48;48.92
56074;BME280;41950;55.840;37.442;2023-04-07T05:23:52;100644.38;;;4.57;49.00
56074;BME280;41950;55.840;37.442;2023-04-07T05:26:18;100610.75;;;4.46;48.39
56074;BME280;41950;55.840;37.442;2023-04-07T05:28:44;100648.19;;;4.74;48.32
56074;BME280;41950;55.840;37.442;2023-04-07T05:31:09;100650.81;;;4.76;47.91
56074;BME280;41950;55.840;37.442;2023-04-07T05:33:36;100608.28;;;4.52;48.14
56074;BME280;41950;55.840;37.442;2023-04-07T05:36:02;100645.78;;;4.82;48.04
56074;BME280;41950;55.840;37.442;2023-04-07T05:38:28;100654.59;;;4.93;47.78
56074;BME280;41950;55.840;37.442;2023-04-07T05:40:53;100649.44;;;4.93;47.35
56074;BME280;41950;55.840;37.442;2023-04-07T05:43:19;100631.09;;;4.76;47.40
56074;BME280;41950;55.840;37.442;2023-04-07T05:45:45;100630.19;;;4.74;47.45
56074;BME280;41950;55.840;37.442;2023-04-07T05:48:13;100650.44;;;4.98;47.96
56074;BME280;41950;55.840;37.442;2023-04-07T05:50:39;100624.53;;;4.90;47.85
56074;BME280;41950;55.840;37.442;2023-04-07T05:53:05;100651.59;;;5.14;47.94
56074;BME280;41950;55.840;37.442;2023-04-07T05:55:31;100612.78;;;5.03;47.46
56074;BME280;41950;55.840;37.442;2023-04-07T05:57:56;100651.94;;;5.31;47.26
56074;BME280;41950;55.840;37.442;2023-04-07T06:00:22;100648.75;;;5.44;46.95
56074;BME280;41950;55.840;37.442;2023-04-07T06:02:48;100658.34;;;5.51;46.80
56074;BME280;41950;55.840;37.442;2023-04-07T06:05:14;100653.34;;;5.58;46.79
56074;BME280;41950;55.840;37.442;2023-04-07T06:07:42;100660.28;;;5.64;46.15
56074;BME280;41950;55.840;37.442;2023-04-07T06:10:08;100623.22;;;5.54;46.46
56074;BME280;41950;55.840;37.442;2023-04-07T06:12:36;100653.66;;;5.77;46.39
56074;BME280;41950;55.840;37.442;2023-04-07T06:15:02;100658.94;;;5.84;45.73
56074;BME280;41950;55.840;37.442;2023-04-07T06:17:29;100656.44;;;5.89;45.79
56074;BME280;41950;55.840;37.442;2023-04-07T06:19:55;100650.53;;;5.93;45.59
56074;BME280;41950;55.840;37.442;2023-04-07T06:22:21;100650.69;;;6.02;45.48
56074;BME280;41950;55.840;37.442;2023-04-07T06:24:46;100650.69;;;6.02;45.32
56074;BME280;41950;55.840;37.442;2023-04-07T06:27:12;100660.97;;;6.01;44.87
56074;BME280;41950;55.840;37.442;2023-04-07T06:29:38;100648.84;;;5.95;45.08
56074;BME280;41950;55.840;37.442;2023-04-07T06:32:03;100653.38;;;6.08;45.03
56074;BME280;41950;55.840;37.442;2023-04-07T06:34:29;100659.53;;;6.16;44.93
56074;BME280;41950;55.840;37.442;2023-04-07T06:36:55;100637.94;;;6.10;45.17
56074;BME280;41950;55.840;37.442;2023-04-07T06:39:20;100647.75;;;6.32;45.25
56074;BME280;41950;55.840;37.442;2023-04-07T06:41:46;100646.09;;;6.37;44.65
56074;BME280;41950;55.840;37.442;2023-04-07T06:44:12;100661.81;;;6.56;44.30
56074;BME280;41950;55.840;37.442;2023-04-07T06:46:37;100655.75;;;6.52;44.15
56074;BME280;41950;55.840;37.442;2023-04-07T06:49:03;100661.06;;;6.61;43.83
56074;BME280;41950;55.840;37.442;2023-04-07T06:51:29;100672.41;;;6.74;43.52
56074;BME280;41950;55.840;37.442;2023-04-07T06:53:56;100674.19;;;6.78;43.82
56074;BME280;41950;55.840;37.442;2023-04-07T06:56:22;100670.94;;;6.90;43.88
56074;BME280;41950;55.840;37.442;2023-04-07T06:58:48;100656.16;;;6.81;43.46
56074;BME280;41950;55.840;37.442;2023-04-07T07:01:14;100670.09;;;6.92;43.48
56074;BME280;41950;55.840;37.442;2023-04-07T07:03:40;100656.34;;;6.92;43.16
56074;BME280;41950;55.840;37.442;2023-04-07T07:06:05;100643.34;;;6.86;43.29
56074;BME280;41950;55.840;37.442;2023-04-07T07:08:31;100674.72;;;7.18;43.22
56074;BME280;41950;55.840;37.442;2023-04-07T07:10:57;100663.66;;;7.28;43.13
56074;BME280;41950;55.840;37.442;2023-04-07T07:13:25;100636.00;;;7.18;42.54
56074;BME280;41950;55.840;37.442;2023-04-07T07:15:51;100671.63;;;7.46;42.61
56074;BME280;41950;55.840;37.442;2023-04-07T07:18:17;100664.00;;;7.60;42.34
56074;BME280;41950;55.840;37.442;2023-04-07T07:20:43;100651.09;;;7.61;42.21
56074;BME280;41950;55.840;37.442;2023-04-07T07:23:08;100665.94;;;7.79;42.32
56074;BME280;41950;55.840;37.442;2023-04-07T07:25:34;100662.59;;;7.91;41.93
56074;BME280;41950;55.840;37.442;2023-04-07T07:28:00;100635.84;;;7.86;41.06
56074;BME280;41950;55.840;37.442;2023-04-07T07:30:26;100655.81;;;8.00;41.03
56074;BME280;41950;55.840;37.442;2023-04-07T07:32:52;100632.50;;;7.96;41.11
56074;BME280;41950;55.840;37.442;2023-04-07T07:35:19;100638.56;;;7.99;41.41
56074;BME280;41950;55.840;37.442;2023-04-07T07:37:45;100672.41;;;8.27;40.32
56074;BME280;41950;55.840;37.442;2023-04-07T07:40:10;100631.72;;;8.06;40.73
56074;BME280;41950;55.840;37.442;2023-04-07T07:42:37;100669.81;;;8.27;40.67
56074;BME280;41950;55.840;37.442;2023-04-07T07:45:06;100630.06;;;8.19;40.42
56074;BME280;41950;55.840;37.442;2023-04-07T07:47:32;100661.34;;;8.45;40.45
56074;BME280;41950;55.840;37.442;2023-04-07T07:49:57;100663.16;;;8.56;40.42
56074;BME280;41950;55.840;37.442;2023-04-07T07:52:23;100671.84;;;8.64;39.75
56074;BME280;41950;55.840;37.442;2023-04-07T07:54:49;100651.97;;;8.57;39.71
56074;BME280;41950;55.840;37.442;2023-04-07T07:57:15;100644.22;;;8.60;39.46
56074;BME280;41950;55.840;37.442;2023-04-07T07:59:43;100669.34;;;8.78;39.59
56074;BME280;41950;55.840;37.442;2023-04-07T08:02:08;100638.22;;;8.71;39.35
56074;BME280;41950;55.840;37.442;2023-04-07T08:04:35;100647.81;;;8.90;39.52
56074;BME280;41950;55.840;37.442;2023-04-07T08:07:02;100655.69;;;9.05;39.11
56074;BME280;41950;55.840;37.442;2023-04-07T08:09:28;100661.75;;;9.15;39.09
56074;BME280;41950;55.840;37.442;2023-04-07T08:11:54;100672.16;;;9.28;39.04
56074;BME280;41950;55.840;37.442;2023-04-07T08:14:20;100635.88;;;9.19;38.05
56074;BME280;41950;55.840;37.442;2023-04-07T08:16:46;100664.44;;;9.36;37.46
56074;BME280;41950;55.840;37.442;2023-04-07T08:19:12;100639.31;;;9.24;37.38
56074;BME280;41950;55.840;37.442;2023-04-07T08:21:38;100654.06;;;9.38;37.00
56074;BME280;41950;55.840;37.442;2023-04-07T08:24:04;100647.16;;;9.38;36.52
56074;BME280;41950;55.840;37.442;2023-04-07T08:26:30;100644.53;;;9.30;36.88
56074;BME280;41950;55.840;37.442;2023-04-07T08:28:56;100624.66;;;9.22;36.87
56074;BME280;41950;55.840;37.442;2023-04-07T08:31:23;100648.88;;;9.39;37.11
56074;BME280;41950;55.840;37.442;2023-04-07T08:33:49;100624.72;;;9.45;36.09
56074;BME280;41950;55.840;37.442;2023-04-07T08:36:21;100646.31;;;9.54;36.08
56074;BME280;41950;55.840;37.442;2023-04-07T08:38:47;100629.03;;;9.52;36.12
56074;BME280;41950;55.840;37.442;2023-04-07T08:41:17;100623.84;;;9.44;35.79
56074;BME280;41950;55.840;37.442;2023-04-07T08:43:43;100617.81;;;9.51;36.46
56074;BME280;41950;55.840;37.442;2023-04-07T08:46:11;100614.41;;;9.72;36.98
56074;BME280;41950;55.840;37.442;2023-04-07T08:48:37;100613.53;;;9.79;35.03
56074;BME280;41950;55.840;37.442;2023-04-07T08:51:05;100614.41;;;9.80;36.48
56074;BME280;41950;55.840;37.442;2023-04-07T08:53:40;100610.09;;;9.99;36.57
56074;BME280;41950;55.840;37.442;2023-04-07T08:56:10;100616.16;;;10.16;36.27
56074;BME280;41950;55.840;37.442;2023-04-07T08:58:36;100633.44;;;10.43;36.39
56074;BME280;41950;55.840;37.442;2023-04-07T09:01:06;100642.06;;;10.60;35.28
56074;BME280;41950;55.840;37.442;2023-04-07T09:03:33;100612.66;;;10.49;34.36
56074;BME280;41950;55.840;37.442;2023-04-07T09:06:01;100626.47;;;10.62;34.94
56074;BME280;41950;55.840;37.442;2023-04-07T09:08:27;100627.34;;;10.59;33.86
56074;BME280;41950;55.840;37.442;2023-04-07T09:10:53;100596.25;;;10.35;34.29
56074;BME280;41950;55.840;37.442;2023-04-07T09:13:20;100626.47;;;10.60;33.86
56074;BME280;41950;55.840;37.442;2023-04-07T09:15:46;100608.34;;;10.48;33.86
56074;BME280;41950;55.840;37.442;2023-04-07T09:18:12;100602.31;;;10.46;33.90
56074;BME280;41950;55.840;37.442;2023-04-07T09:20:57;100633.38;;;10.75;33.99
56074;BME280;41950;55.840;37.442;2023-04-07T09:23:31;100608.28;;;10.74;33.34
56074;BME280;41950;55.840;37.442;2023-04-07T09:25:59;100620.31;;;10.90;32.84
56074;BME280;41950;55.840;37.442;2023-04-07T09:28:37;100633.31;;;10.98;32.98
56074;BME280;41950;55.840;37.442;2023-04-07T09:31:03;100624.56;;;11.14;33.40
56074;BME280;41950;55.840;37.442;2023-04-07T09:33:29;100623.69;;;11.24;32.51
56074;BME280;41950;55.840;37.442;2023-04-07T09:35:55;100596.88;;;11.11;33.26
56074;BME280;41950;55.840;37.442;2023-04-07T09:38:21;100618.47;;;11.21;32.49
56074;BME280;41950;55.840;37.442;2023-04-07T09:40:47;100592.53;;;11.13;32.53
56074;BME280;41950;55.840;37.442;2023-04-07T09:43:18;100606.28;;;11.34;32.90
56074;BME280;41950;55.840;37.442;2023-04-07T09:45:43;100620.03;;;11.54;32.91
56074;BME280;41950;55.840;37.442;2023-04-07T09:48:27;100613.00;;;11.67;33.00
56074;BME280;41950;55.840;37.442;2023-04-07T09:51:04;100607.84;;;11.61;32.73
56074;BME280;41950;55.840;37.442;2023-04-07T09:53:44;100615.59;;;11.67;32.79
56074;BME280;41950;55.840;37.442;2023-04-07T09:56:10;100619.16;;;11.57;30.78
56074;BME280;41950;55.840;37.442;2023-04-07T09:58:39;100623.44;;;11.61;31.42
56074;BME280;41950;55.840;37.442;2023-04-07T10:01:09;100614.69;;;11.80;31.10
56074;BME280;41950;55.840;37.442;2023-04-07T10:03:36;100604.97;;;12.00;31.31
56074;BME280;41950;55.840;37.442;2023-04-07T10:06:03;100607.38;;;12.23;30.72
56074;BME280;41950;55.840;37.442;2023-04-07T10:08:32;100617.41;;;12.60;31.18
56074;BME280;41950;55.840;37.442;2023-04-07T10:11:00;100615.31;;;12.95;29.85
56074;BME280;41950;55.840;37.442;2023-04-07T10:13:31;100617.09;;;12.90;29.26
56074;BME280;41950;55.840;37.442;2023-04-07T10:15:58;100609.84;;;13.15;29.62
56074;BME280;41950;55.840;37.442;2023-04-07T10:18:29;100629.75;;;13.24;28.16
56074;BME280;41950;55.840;37.442;2023-04-07T10:20:57;100618.78;;;12.96;28.90
56074;BME280;41950;55.840;37.442;2023-04-07T10:23:31;100612.06;;;12.75;28.41
56074;BME280;41950;55.840;37.442;2023-04-07T10:26:05;100617.31;;;12.72;29.30
56074;BME280;41950;55.840;37.442;2023-04-07T10:28:32;100615.38;;;12.91;29.66
56074;BME280;41950;55.840;37.442;2023-04-07T10:30:59;100608.91;;;13.22;29.86
56074;BME280;41950;55.840;37.442;2023-04-07T10:33:50;100620.84;;;13.39;29.11
56074;BME280;41950;55.840;37.442;2023-04-07T10:36:17;100619.25;;;13.28;28.67
56074;BME280;41950;55.840;37.442;2023-04-07T10:39:23;100608.78;;;13.32;28.45
56074;BME280;41950;55.840;37.442;2023-04-07T10:41:49;100596.84;;;13.11;28.32
56074;BME280;41950;55.840;37.442;2023-04-07T10:47:05;100624.63;;;13.13;28.36
56074;BME280;41950;55.840;37.442;2023-04-07T10:49:32;100622.75;;;13.27;28.23
56074;BME280;41950;55.840;37.442;2023-04-07T10:54:36;100582.78;;;13.27;27.59
56074;BME280;41950;55.840;37.442;2023-04-07T10:59:32;100605.00;;;14.08;27.10
56074;BME280;41950;55.840;37.442;2023-04-07T11:04:44;100622.69;;;14.41;26.92
56074;BME280;41950;55.840;37.442;2023-04-07T11:07:11;100623.47;;;14.48;26.42
56074;BME280;41950;55.840;37.442;2023-04-07T11:09:37;100614.38;;;14.69;26.02
56074;BME280;41950;55.840;37.442;2023-04-07T11:12:03;100607.78;;;14.94;25.87
56074;BME280;41950;55.840;37.442;2023-04-07T11:14:31;100599.38;;;15.22;24.96
56074;BME280;41950;55.840;37.442;2023-04-07T11:16:58;100610.47;;;14.91;25.28
56074;BME280;41950;55.840;37.442;2023-04-07T11:19:24;100612.09;;;14.97;25.41
56074;BME280;41950;55.840;37.442;2023-04-07T11:22:13;100608.09;;;15.21;25.86
56074;BME280;41950;55.840;37.442;2023-04-07T11:24:39;100601.09;;;15.23;25.34
56074;BME280;41950;55.840;37.442;2023-04-07T11:27:10;100606.22;;;15.27;24.91
56074;BME280;41950;55.840;37.442;2023-04-07T11:29:37;100600.75;;;15.38;25.47
56074;BME280;41950;55.840;37.442;2023-04-07T11:32:03;100591.97;;;15.40;25.53
56074;BME280;41950;55.840;37.442;2023-04-07T11:34:35;100601.88;;;15.66;25.22
56074;BME280;41950;55.840;37.442;2023-04-07T11:39:56;100601.88;;;15.26;24.53
56074;BME280;41950;55.840;37.442;2023-04-07T11:42:36;100607.31;;;15.17;24.15
56074;BME280;41950;55.840;37.442;2023-04-07T11:45:02;100613.97;;;14.90;24.74
56074;BME280;41950;55.840;37.442;2023-04-07T11:47:35;100609.69;;;14.86;24.73
56074;BME280;41950;55.840;37.442;2023-04-07T11:50:01;100604.63;;;14.77;24.72
56074;BME280;41950;55.840;37.442;2023-04-07T11:52:46;100603.47;;;14.92;24.69
56074;BME280;41950;55.840;37.442;2023-04-07T11:55:21;100606.88;;;14.95;25.13
56074;BME280;41950;55.840;37.442;2023-04-07T11:57:49;100586.28;;;15.22;24.50
56074;BME280;41950;55.840;37.442;2023-04-07T12:00:16;100597.66;;;15.59;24.00
56074;BME280;41950;55.840;37.442;2023-04-07T12:02:43;100574.28;;;15.52;23.79
56074;BME280;41950;55.840;37.442;2023-04-07T12:05:08;100603.22;;;16.18;23.90
56074;BME280;41950;55.840;37.442;2023-04-07T12:07:38;100594.88;;;16.36;23.11
56074;BME280;41950;55.840;37.442;2023-04-07T12:10:18;100583.38;;;16.42;22.75
56074;BME280;41950;55.840;37.442;2023-04-07T12:12:45;100582.72;;;16.34;22.87
56074;BME280;41950;55.840;37.442;2023-04-07T12:15:11;100602.69;;;16.72;23.24
56074;BME280;41950;55.840;37.442;2023-04-07T12:17:42;100593.19;;;16.99;22.82
56074;BME280;41950;55.840;37.442;2023-04-07T12:20:08;100581.09;;;17.23;22.72
56074;BME280;41950;55.840;37.442;2023-04-07T12:22:34;100592.38;;;17.54;22.47
56074;BME280;41950;55.840;37.442;2023-04-07T12:25:00;100602.91;;;17.82;22.39
56074;BME280;41950;55.840;37.442;2023-04-07T12:27:26;100582.81;;;17.81;21.34
56074;BME280;41950;55.840;37.442;2023-04-07T12:29:52;100599.66;;;17.74;21.41
56074;BME280;41950;55.840;37.442;2023-04-07T12:32:17;100592.63;;;18.28;21.42
56074;BME280;41950;55.840;37.442;2023-04-07T12:34:43;100597.22;;;18.72;20.73
56074;BME280;41950;55.840;37.442;2023-04-07T12:37:09;100594.97;;;18.85;20.65
56074;BME280;41950;55.840;37.442;2023-04-07T12:39:34;100597.91;;;19.24;20.52
56074;BME280;41950;55.840;37.442;2023-04-07T12:42:00;100589.28;;;18.97;20.45
56074;BME280;41950;55.840;37.442;2023-04-07T12:44:26;100589.19;;;18.50;20.36
56074;BME280;41950;55.840;37.442;2023-04-07T12:46:52;100579.41;;;17.78;21.03
56074;BME280;41950;55.840;37.442;2023-04-07T12:49:17;100565.09;;;17.60;21.14
56074;BME280;41950;55.840;37.442;2023-04-07T12:51:43;100589.25;;;17.71;21.33
56074;BME280;41950;55.840;37.442;2023-04-07T12:54:09;100589.22;;;17.43;21.49
56074;BME280;41950;55.840;37.442;2023-04-07T12:56:35;100584.97;;;17.95;20.94
56074;BME280;41950;55.840;37.442;2023-04-07T12:59:00;100589.19;;;17.99;20.66
56074;BME280;41950;55.840;37.442;2023-04-07T13:01:26;100583.59;;;18.35;21.30
56074;BME280;41950;55.840;37.442;2023-04-07T13:03:52;100589.88;;;18.80;20.59
56074;BME280;41950;55.840;37.442;2023-04-07T13:06:17;100595.03;;;18.83;20.61
56074;BME280;41950;55.840;37.442;2023-04-07T13:08:43;100595.25;;;18.52;20.44